HOURLY OBS INDEX

041

Darling Downs - east

APPLETHORPE

Site: 041175
Alt: 871.6m
118km S of TOOWOOMBA


  Time     Wind        Temp  DP   Baro     Rain since   Rain past  Vis(m), Cloud(base in m), Weather
  local        km/h                         9am  last   hr   10m    
Mon 10:00   SW 13/ 24   9.7  1.8  1018.9    0.0   0.0   0.0   0.0   ----- 
Mon 10:30   SW 13/ 24   9.8  0.4  1018.8    0.0   0.0   0.0   0.0   ----- 
Mon 11:00  WSW 13/ 24  10.4  1.0  1018.6    0.0   0.0   0.0   0.0   ----- 
Mon 11:30    W 13/ 20  10.6  0.9  1018.2    0.0   0.0   0.0   0.0   ----- 
Mon 12:00  WSW 11/ 20   9.6  0.8  1017.9    0.0   0.0   0.0   0.0   ----- 
Mon 12:30  WSW 11/ 26   9.9  1.0  1017.4    0.0   0.0   0.0   0.0   ----- 
Mon 13:00  WSW 15/ 28  10.1  0.4  1017.0    0.0   0.0   0.0   0.0   ----- 
Mon 13:30  WSW 15/ 26  10.3  0.1  1017.0    0.0   0.0   0.0   0.0   ----- 
Mon 14:00  WSW 13/ 22   9.7 -0.8  1017.0    0.0   0.0   0.0   0.0   ----- 
Mon 14:30  WSW 11/ 24  10.4  1.5  1016.8    0.0   0.0   0.0   0.0   ----- 

BRISBANE WEST WELLCAMP AIRPORT

Site: 041BWW
Alt: 530m
17km W of TOOWOOMBA


  Time     Wind        Temp  DP   Baro     Rain since   Rain past  Vis(m), Cloud(base in m), Weather
  local        km/h                         9am  last   hr   10m    
Mon 10:00   SW 19/ 28  13.8  3.3  1018.9    0.0   0.0   0.0   0.0   10000 
Mon 10:30  WSW 20/ 26  14.6  3.4  1018.8    0.0   0.0   0.0   0.0   10000|SC1230 
Mon 11:00    W 22/ 35  14.6  2.8  1018.4    0.0   0.0   0.0   0.0   10000 
Mon 11:30    W 20/ 33  14.9  3.4  1018.0    0.0   0.0   0.0   0.0   10000 
Mon 12:00  WSW 20/ 32  15.7  3.5  1017.4    0.0   0.0   0.0   0.0   10000|SC1290 
Mon 12:30  WSW 24/ 35  14.8  3.9  1017.1    0.0   0.0   0.0   0.0   10000|SC1410 
Mon 13:00    W 20/ 32  13.7  3.2  1016.8    0.0   0.0   0.0   0.0   10000|SC1710 
Mon 13:30    W 24/ 35  15.2  2.1  1016.7    0.0   0.0   0.0   0.0   10000|BR1560 
Mon 14:00    W 28/ 35  15.8  1.9  1016.7    0.0   0.0   0.0   0.0   10000|SC1500 
Mon 14:30  WSW 24/ 37  15.9  1.2  1016.5    0.0   0.0   0.0   0.0   10000|SC1620 BR1950 

DALBY AIRPORT

Site: 041522
Alt: 343.9m
3km NNE of DALBY


  Time     Wind        Temp  DP   Baro     Rain since   Rain past  Vis(m), Cloud(base in m), Weather
  local        km/h                         9am  last   hr   10m    
Mon 10:00  SSW 13/ 17  13.9  5.8  1019.9    0.0   0.0   0.0   0.0   ----- 
Mon 10:30   SW 15/ 20  14.3  4.6  1019.7    0.0   0.0   0.0   0.0   ----- 
Mon 11:00  WSW 24/ 32  14.4  4.7  1019.2    0.0   0.0   0.0   0.0   ----- 
Mon 11:30    W 20/ 22  14.3  3.5  1018.9    0.0   0.0   0.0   0.0   ----- 
Mon 12:00  WSW 20/ 30  16.0  5.0  1018.4    0.0   0.0   0.0   0.0   ----- 
Mon 12:30    W 22/ 35  15.8  3.9  1018.0    0.0   0.0   0.0   0.0   ----- 
Mon 13:00  WSW 26/ 33  16.0  1.7  1017.7    0.0   0.0   0.0   0.0   ----- 
Mon 13:30    W 28/ 35  16.0  1.7  1017.5    0.0   0.0   0.0   0.0   ----- 
Mon 14:00    W 30/ 37  16.2  2.2  1017.5    0.0   0.0   0.0   0.0   ----- 
Mon 14:30    W 26/ 35  15.9  1.6  1017.4    0.0   0.0   0.0   0.0   ----- 

OAKEY AERO

Site: 041359
Alt: 405.7m
27km NW of TOOWOOMBA


  Time     Wind        Temp  DP   Baro     Rain since   Rain past  Vis(m), Cloud(base in m), Weather
  local        km/h                         9am  last   hr   10m    
Mon 10:00   SW 13/ 17  13.4  7.0  1019.6    0.0   0.0   0.0   0.0   10000|SC 870 
Mon 10:30   SW 20/ 30  14.5  4.5  1019.5    0.0   0.0   0.0   0.0   10000|SC1080 
Mon 11:00   SW 28/ 35  14.7  3.2  1018.9    0.0   0.0   0.0   0.0   10000 
Mon 11:30  WSW 24/ 35  14.9  3.4  1018.5    0.0   0.0   0.0   0.0   10000|SC2100 
Mon 12:00   SW 24/ 33  15.2  3.7  1018.0    0.0   0.0   0.0   0.0   10000 
Mon 12:30  WSW 24/ 30  15.3  4.7  1017.7    0.0   0.0   0.0   0.0  *10000|SC1410cu 
Mon 13:00  WSW 28/ 39  16.1  4.2  1017.3    0.0   0.0   0.0   0.0  *10000|BR1260cu 
Mon 13:30  WSW 32/ 41  14.7  1.6  1017.4    0.0   0.0   0.0   0.0  *10000|BR1350cu 
Mon 14:00  WSW 26/ 37  16.1  2.5  1017.2    0.0   0.0   0.0   0.0   10000|SC1590 
Mon 14:30   SW 28/ 35  15.1  0.9  1017.2    0.0   0.0   0.0   0.0   10000|OC1650 

TOOWOOMBA AIRPORT

Site: 041529
Alt: 640.9m
4km WNW of TOOWOOMBA


  Time     Wind        Temp  DP   Baro     Rain since   Rain past  Vis(m), Cloud(base in m), Weather
  local        km/h                         9am  last   hr   10m    
Mon 10:00  WSW 22/ 32  11.7  3.7  1020.3    0.0   0.0   0.0   0.0   10000 
Mon 10:30  WSW 22/ 33  12.0  3.3  1020.0    0.0   0.0   0.0   0.0   10000|SC1050 
Mon 11:00  WSW 24/ 32  12.4  2.6  1019.7    0.0   0.0   0.0   0.0   10000|SC1050 
Mon 11:30    W 22/ 32  12.5  2.1  1019.2    0.0   0.0   0.0   0.0   10000 
Mon 12:00  WSW 24/ 32  13.4  2.9  1018.7    0.0   0.0   0.0   0.0   10000 
Mon 12:30    W 24/ 33  13.5  3.6  1018.3    0.0   0.0   0.0   0.0   10000|SC1230 
Mon 13:00  WSW 26/ 32  14.0  3.2  1017.9    0.0   0.0   0.0   0.0   10000|BR1170 BR1410 OC1560 
Mon 13:30    W 32/ 46  12.6  2.2  1018.0    0.0   0.0   0.0   0.0   10000|SC1290 
Mon 13:46  WSW 28/ 46  13.5  1.5  1017.9    0.0   0.0  ----   0.0   10000|SC1380 
Mon 14:00    W 28/ 35  12.4  2.6  1018.0    0.0   0.0   0.0   0.0   10000|BR1440 BR1770 
Mon 14:30    W 24/ 35  12.2  1.8  1018.1    0.0   0.0   0.0   0.0   10000|SC1380 BR1680 

WARWICK

Site: 041525
Alt: 475.4m
73km SSE of TOOWOOMBA


  Time     Wind        Temp  DP   Baro     Rain since   Rain past  Vis(m), Cloud(base in m), Weather
  local        km/h                         9am  last   hr   10m    
Mon 10:00    W 13/ 20  12.8  5.0  1018.7    0.0   0.0   0.0   0.0   ----- 
Mon 10:30   SW 19/ 28  12.8  3.5  1018.6    0.0   0.0   0.0   0.0   ----- 
Mon 11:00   SW 20/ 30  13.7  3.8  1018.1    0.0   0.0   0.0   0.0   ----- 
Mon 11:30    W 13/ 22  14.5  2.7  1017.6    0.0   0.0   0.0   0.0   ----- 
Mon 12:00  WSW 17/ 24  14.6  2.2  1017.0    0.0   0.0   0.0   0.0   ----- 
Mon 12:30  WSW 17/ 28  14.6  2.5  1016.7    0.0   0.0   0.0   0.0   ----- 
Mon 13:00    W 20/ 32  15.3  2.8  1016.5    0.0   0.0   0.0   0.0   ----- 
Mon 13:30    W 15/ 28  15.5  3.0  1016.4    0.0   0.0   0.0   0.0   ----- 
Mon 14:00  WSW 19/ 30  13.7  3.5  1016.4    0.0   0.0   0.0   0.0   ----- 
Mon 14:30  WSW 17/ 30  15.5  2.3  1016.3    0.0   0.0   0.0   0.0   -----